Time;durP1;ratioP1;P1;durP2;ratioP2;P2;SDS_P1;SDS_P2;PMS_P1;PMS_P2;Temp;Humidity;BMP_temperature;BMP_pressure;BME280_temperature;BME280_humidity;BME280_pressure;Samples;Min_cycle;Max_cycle;Signal;HPM_P1;HPM_P2
2023/06/30 00:01:29;;;;;;;5.73;5.23;;;22.20;99.90;;;;;;5086835;28;20514;-69
2023/06/30 00:03:55;;;;;;;5.20;4.63;;;22.20;99.90;;;;;;5089122;28;20527;-69
2023/06/30 00:06:21;;;;;;;5.00;4.60;;;22.20;99.90;;;;;;5081251;28;20627;-69
2023/06/30 00:08:48;;;;;;;6.30;5.17;;;22.10;99.90;;;;;;5081172;28;20575;-69
2023/06/30 00:11:14;;;;;;;6.30;5.80;;;22.10;99.90;;;;;;5091380;28;20439;-68
2023/06/30 00:13:40;;;;;;;9.50;6.43;;;22.10;99.90;;;;;;5111233;22;20853;-68
2023/06/30 00:16:05;;;;;;;6.93;6.23;;;22.00;99.90;;;;;;5094607;28;20415;-68
2023/06/30 00:18:31;;;;;;;8.70;7.03;;;22.00;99.90;;;;;;5094108;28;20169;-68
2023/06/30 00:20:57;;;;;;;10.70;7.20;;;22.00;99.90;;;;;;5088935;28;20294;-68
2023/06/30 00:23:27;;;;;;;9.17;8.23;;;21.90;99.90;;;;;;5092765;28;20326;-69
2023/06/30 00:25:53;;;;;;;12.33;8.50;;;21.90;99.90;;;;;;5073550;28;20430;-69
2023/06/30 00:28:18;;;;;;;13.13;8.37;;;21.90;99.90;;;;;;5089475;28;20408;-68
2023/06/30 00:30:44;;;;;;;13.60;9.03;;;21.90;99.90;;;;;;5094271;28;20599;-68
2023/06/30 00:33:10;;;;;;;11.20;9.13;;;21.80;99.90;;;;;;5090475;28;20202;-67
2023/06/30 00:35:35;;;;;;;12.63;10.20;;;21.80;99.90;;;;;;5074777;28;20193;-68
2023/06/30 00:38:01;;;;;;;12.40;10.27;;;21.70;99.90;;;;;;5090486;28;20187;-69
2023/06/30 00:40:26;;;;;;;15.63;10.23;;;21.60;99.90;;;;;;5091349;28;20264;-68
2023/06/30 00:42:52;;;;;;;11.73;9.83;;;21.60;99.90;;;;;;5091724;28;20639;-68
2023/06/30 00:45:18;;;;;;;13.73;10.53;;;21.40;99.90;;;;;;5069989;28;20193;-69
2023/06/30 00:47:43;;;;;;;14.60;11.50;;;21.30;99.90;;;;;;5093341;28;20217;-68
2023/06/30 00:50:10;;;;;;;12.37;10.70;;;21.20;99.90;;;;;;5071326;28;20186;-67
2023/06/30 00:52:35;;;;;;;14.07;11.47;;;21.10;99.90;;;;;;5091953;28;20196;-69
2023/06/30 00:55:01;;;;;;;16.67;14.07;;;21.10;99.90;;;;;;5072010;28;20466;-69
2023/06/30 00:57:27;;;;;;;20.73;12.13;;;21.00;99.90;;;;;;5090005;28;20261;-67
2023/06/30 00:59:52;;;;;;;15.03;13.27;;;20.80;99.90;;;;;;5093551;28;20258;-68
2023/06/30 01:02:25;;;;;;;13.83;11.70;;;20.70;99.90;;;;;;5067124;28;20188;-68
2023/06/30 01:05:25;;;;;;;17.20;11.90;;;20.60;99.90;;;;;;5092565;28;20204;-67
2023/06/30 01:08:26;;;;;;;15.27;12.50;;;20.60;99.90;;;;;;5087906;28;20514;-68
2023/06/30 01:10:53;;;;;;;15.63;12.33;;;20.60;99.90;;;;;;4989769;28;20829;-67
2023/06/30 01:13:20;;;;;;;17.23;13.07;;;20.50;99.90;;;;;;5068300;28;20493;-68
2023/06/30 01:15:47;;;;;;;13.90;12.27;;;20.50;99.90;;;;;;5072499;28;20783;-67
2023/06/30 01:18:15;;;;;;;17.43;13.47;;;20.40;99.90;;;;;;5092196;28;20410;-67
2023/06/30 01:20:41;;;;;;;14.73;12.90;;;20.30;99.90;;;;;;5078711;28;20421;-68
2023/06/30 01:23:33;;;;;;;14.60;12.40;;;20.30;99.90;;;;;;5092172;28;20516;-69
2023/06/30 01:25:59;;;;;;;18.60;11.83;;;20.20;99.90;;;;;;5084639;28;20920;-67
2023/06/30 01:28:28;;;;;;;16.60;12.90;;;20.20;99.90;;;;;;5092720;28;20407;-70
2023/06/30 01:30:55;;;;;;;16.10;11.87;;;20.10;99.90;;;;;;5090452;28;20407;-67
2023/06/30 01:33:21;;;;;;;16.03;13.30;;;20.00;99.90;;;;;;5090966;28;20421;-69
2023/06/30 01:35:47;;;;;;;18.20;12.97;;;20.00;99.90;;;;;;5091123;28;20460;-68
2023/06/30 01:38:13;;;;;;;17.17;13.23;;;19.90;99.90;;;;;;5088170;28;20495;-69
2023/06/30 01:40:39;;;;;;;19.00;14.00;;;20.00;99.90;;;;;;5092936;28;20402;-68
2023/06/30 01:43:05;;;;;;;17.37;13.83;;;19.90;99.90;;;;;;5089938;28;20477;-69
2023/06/30 01:45:31;;;;;;;19.00;13.80;;;19.90;99.90;;;;;;5093422;28;20204;-70
2023/06/30 01:47:58;;;;;;;18.40;14.37;;;19.80;99.90;;;;;;5072018;28;20418;-68
2023/06/30 01:50:25;;;;;;;18.27;15.43;;;19.80;99.90;;;;;;5094835;28;20408;-67
2023/06/30 01:52:50;;;;;;;18.63;14.33;;;19.80;99.90;;;;;;5093102;28;20932;-68
2023/06/30 01:55:17;;;;;;;23.90;13.53;;;19.70;99.90;;;;;;5088351;28;20409;-68
2023/06/30 01:57:42;;;;;;;19.47;14.63;;;19.70;99.90;;;;;;5090903;28;20174;-68
2023/06/30 02:00:08;;;;;;;16.90;13.80;;;19.70;99.90;;;;;;5086908;28;20755;-68
2023/06/30 02:02:34;;;;;;;20.33;14.43;;;19.70;99.90;;;;;;5086328;28;20202;-68
2023/06/30 02:04:59;;;;;;;22.10;15.70;;;19.70;99.90;;;;;;5062422;28;20549;-68
2023/06/30 02:07:25;;;;;;;18.27;14.40;;;19.70;99.90;;;;;;5086842;28;20646;-67
2023/06/30 02:09:50;;;;;;;17.07;14.40;;;19.60;99.90;;;;;;5079150;28;20178;-67
2023/06/30 02:12:16;;;;;;;18.50;14.70;;;19.60;99.90;;;;;;5094513;28;20176;-67
2023/06/30 02:14:42;;;;;;;15.13;12.60;;;19.60;99.90;;;;;;5090155;28;20168;-68
2023/06/30 02:17:11;;;;;;;16.30;13.27;;;19.60;99.90;;;;;;5094302;28;20182;-69
2023/06/30 02:19:36;;;;;;;16.13;13.87;;;19.50;99.90;;;;;;5095288;28;20236;-69
2023/06/30 02:22:02;;;;;;;15.87;13.63;;;19.50;99.90;;;;;;5089594;28;20410;-68
2023/06/30 02:24:28;;;;;;;16.40;12.53;;;19.50;99.90;;;;;;5078975;28;20208;-69
2023/06/30 02:26:54;;;;;;;20.00;14.80;;;19.40;99.90;;;;;;5087708;28;20180;-68
2023/06/30 02:29:20;;;;;;;18.47;14.23;;;19.50;99.90;;;;;;5083425;28;20564;-67
2023/06/30 02:31:46;;;;;;;18.73;14.77;;;19.50;99.90;;;;;;5083277;28;21032;-68
2023/06/30 02:34:12;;;;;;;16.20;12.60;;;19.50;99.90;;;;;;5100597;28;20462;-68
2023/06/30 02:36:37;;;;;;;15.50;13.87;;;19.50;99.90;;;;;;5095874;28;20413;-68
2023/06/30 02:39:04;;;;;;;19.00;14.27;;;19.50;99.90;;;;;;5072212;28;20641;-68
2023/06/30 02:41:29;;;;;;;18.70;14.13;;;19.50;99.90;;;;;;5092725;28;20174;-68
2023/06/30 02:43:55;;;;;;;19.13;14.87;;;19.40;99.90;;;;;;5086746;28;20524;-68
2023/06/30 02:46:20;;;;;;;16.43;14.03;;;19.40;99.90;;;;;;5091145;28;20588;-68
2023/06/30 02:48:46;;;;;;;21.20;15.03;;;19.40;99.90;;;;;;5084304;28;20209;-68
2023/06/30 02:51:12;;;;;;;16.73;14.17;;;19.40;99.90;;;;;;5088596;28;20176;-68
2023/06/30 02:53:38;;;;;;;24.30;15.90;;;19.30;99.90;;;;;;5072871;28;20631;-69
2023/06/30 02:56:04;;;;;;;20.90;15.13;;;19.30;99.90;;;;;;5066762;28;20271;-68
2023/06/30 02:58:30;;;;;;;20.90;15.77;;;19.30;99.90;;;;;;5091555;28;20418;-68
2023/06/30 03:00:56;;;;;;;19.47;15.73;;;19.30;99.90;;;;;;5082770;28;20259;-68
2023/06/30 03:03:22;;;;;;;19.63;13.60;;;19.30;99.90;;;;;;5072819;28;21018;-68
2023/06/30 03:05:48;;;;;;;19.30;14.23;;;19.30;99.90;;;;;;5090076;28;20496;-70
2023/06/30 03:08:13;;;;;;;15.27;13.30;;;19.30;99.90;;;;;;5103093;28;20172;-69
2023/06/30 03:10:39;;;;;;;18.00;14.57;;;19.30;99.90;;;;;;5092206;28;20423;-68
2023/06/30 03:13:05;;;;;;;18.50;13.70;;;19.30;99.90;;;;;;5088212;28;20208;-68
2023/06/30 03:15:30;;;;;;;18.03;13.03;;;19.30;99.90;;;;;;5096344;28;20235;-68
2023/06/30 03:17:56;;;;;;;18.67;14.93;;;19.40;99.90;;;;;;5085175;28;20183;-69
2023/06/30 03:20:22;;;;;;;18.40;14.43;;;19.40;99.90;;;;;;5089819;28;20196;-68
2023/06/30 03:22:47;;;;;;;20.20;15.33;;;19.40;99.90;;;;;;5091045;28;20210;-69
2023/06/30 03:25:13;;;;;;;19.03;15.10;;;19.40;99.90;;;;;;5086353;28;20455;-69
2023/06/30 03:27:40;;;;;;;15.97;11.63;;;19.30;99.90;;;;;;5100557;28;20175;-68
2023/06/30 03:30:06;;;;;;;16.97;15.07;;;19.40;99.90;;;;;;5089975;28;20657;-68
2023/06/30 03:32:32;;;;;;;16.43;13.60;;;19.50;99.90;;;;;;5094938;28;20437;-70
2023/06/30 03:35:00;;;;;;;21.47;14.90;;;19.50;99.90;;;;;;5069829;28;20514;-68
2023/06/30 03:37:26;;;;;;;19.20;14.93;;;19.60;99.90;;;;;;5092846;28;20421;-70
2023/06/30 03:39:51;;;;;;;17.50;13.13;;;19.60;99.90;;;;;;5088817;28;20449;-68
2023/06/30 03:42:17;;;;;;;17.90;13.47;;;19.60;99.90;;;;;;5085573;28;20171;-68
2023/06/30 03:44:42;;;;;;;17.10;14.13;;;19.60;99.90;;;;;;5072456;28;20670;-68
2023/06/30 03:47:08;;;;;;;18.93;15.00;;;19.50;99.90;;;;;;5070818;28;20182;-69
2023/06/30 03:49:34;;;;;;;18.40;14.70;;;19.50;99.90;;;;;;5096348;28;20530;-67
2023/06/30 03:51:59;;;;;;;18.33;14.00;;;19.50;99.90;;;;;;5074550;28;20255;-68
2023/06/30 03:54:25;;;;;;;16.87;13.57;;;19.40;99.90;;;;;;5092057;28;20220;-68
2023/06/30 03:56:50;;;;;;;19.73;15.10;;;19.60;99.90;;;;;;5093277;28;20593;-70
2023/06/30 03:59:17;;;;;;;19.20;14.33;;;19.60;99.90;;;;;;5092624;28;20267;-68
2023/06/30 04:01:42;;;;;;;21.70;14.70;;;19.60;99.90;;;;;;5105761;28;20182;-68
2023/06/30 04:04:09;;;;;;;17.30;13.73;;;19.70;99.90;;;;;;5092171;28;20469;-68
2023/06/30 04:06:36;;;;;;;20.10;14.77;;;19.60;99.90;;;;;;5097448;28;20254;-67
2023/06/30 04:09:02;;;;;;;16.77;13.00;;;19.70;99.90;;;;;;5071464;28;20417;-67
2023/06/30 04:11:27;;;;;;;19.27;14.23;;;19.80;99.90;;;;;;5096634;28;20426;-67
2023/06/30 04:13:53;;;;;;;17.87;14.67;;;19.80;99.90;;;;;;5094356;28;20290;-70
2023/06/30 04:16:18;;;;;;;17.20;14.13;;;19.80;99.90;;;;;;5073698;28;20167;-67
2023/06/30 04:18:44;;;;;;;16.67;13.40;;;19.80;99.90;;;;;;5091634;28;20658;-67
2023/06/30 04:21:10;;;;;;;16.10;13.90;;;19.90;99.90;;;;;;5099375;28;20171;-67
2023/06/30 04:23:36;;;;;;;17.50;14.00;;;19.80;99.90;;;;;;5071643;28;20670;-70
2023/06/30 04:26:04;;;;;;;19.10;14.47;;;19.90;99.90;;;;;;5091480;28;20194;-69
2023/06/30 04:28:30;;;;;;;18.33;14.83;;;19.90;99.90;;;;;;5077572;28;20917;-68
2023/06/30 04:30:58;;;;;;;19.67;13.87;;;19.90;99.90;;;;;;5077993;28;20413;-68
2023/06/30 04:33:24;;;;;;;20.93;17.23;;;20.00;99.90;;;;;;5100568;28;20583;-66
2023/06/30 04:35:49;;;;;;;19.70;15.10;;;20.10;99.90;;;;;;5093689;28;20426;-68
2023/06/30 04:38:15;;;;;;;22.30;15.20;;;20.10;99.90;;;;;;5099065;28;20168;-67
2023/06/30 04:40:40;;;;;;;19.17;15.53;;;20.20;99.90;;;;;;5089545;28;20179;-68
2023/06/30 04:43:12;;;;;;;17.83;14.13;;;20.30;99.90;;;;;;5097346;28;20222;-69
2023/06/30 04:45:40;;;;;;;17.37;13.87;;;20.60;99.90;;;;;;5095969;28;20231;-67
2023/06/30 04:48:10;;;;;;;20.30;14.37;;;20.90;99.90;;;;;;5090359;28;20414;-69
2023/06/30 04:50:36;;;;;;;19.00;13.57;;;21.00;99.90;;;;;;5094419;28;20492;-67
2023/06/30 04:53:02;;;;;;;17.77;13.03;;;21.10;99.90;;;;;;5089309;28;21229;-68
2023/06/30 04:55:27;;;;;;;20.27;14.30;;;21.50;99.90;;;;;;5091836;28;20415;-68
2023/06/30 04:57:55;;;;;;;19.00;13.43;;;21.50;99.90;;;;;;5088194;28;20801;-67
2023/06/30 05:00:21;;;;;;;18.07;13.97;;;21.70;99.90;;;;;;5090546;28;20175;-69
2023/06/30 05:02:47;;;;;;;20.13;13.67;;;22.00;99.90;;;;;;5104026;28;20422;-69
2023/06/30 05:05:13;;;;;;;16.37;13.43;;;22.10;99.90;;;;;;5095155;28;20448;-68
2023/06/30 05:07:38;;;;;;;18.27;14.40;;;22.00;99.90;;;;;;5099740;28;20940;-70
2023/06/30 05:10:04;;;;;;;14.87;13.20;;;22.00;99.90;;;;;;5093598;28;20202;-68
2023/06/30 05:12:30;;;;;;;16.57;12.97;;;22.50;99.90;;;;;;5092074;28;20710;-69
2023/06/30 05:14:56;;;;;;;15.73;11.77;;;22.80;99.90;;;;;;5089187;28;20428;-68
2023/06/30 05:17:21;;;;;;;16.53;13.67;;;22.90;99.90;;;;;;5094584;28;20171;-68
2023/06/30 05:19:47;;;;;;;17.53;12.70;;;22.70;99.90;;;;;;5062722;28;20538;-70
2023/06/30 05:22:13;;;;;;;15.47;12.50;;;22.70;99.90;;;;;;5082395;28;20205;-68
2023/06/30 05:24:38;;;;;;;19.20;14.30;;;22.80;99.90;;;;;;5069273;28;20201;-67
2023/06/30 05:27:04;;;;;;;15.87;11.53;;;23.40;99.90;;;;;;5091095;28;20169;-68
2023/06/30 05:29:31;;;;;;;20.33;14.03;;;23.50;99.90;;;;;;5077579;28;20173;-68
2023/06/30 05:31:57;;;;;;;18.63;12.80;;;23.60;99.90;;;;;;5090796;28;20201;-68
2023/06/30 05:34:23;;;;;;;15.73;12.50;;;24.10;99.90;;;;;;5099715;28;20470;-68
2023/06/30 05:36:48;;;;;;;15.07;12.20;;;23.80;99.90;;;;;;5090930;28;20184;-68
2023/06/30 05:39:14;;;;;;;13.77;10.43;;;24.10;99.90;;;;;;5099164;28;20168;-69
2023/06/30 05:41:40;;;;;;;16.53;12.27;;;24.40;99.90;;;;;;5090213;28;20222;-68
2023/06/30 05:44:09;;;;;;;13.70;12.00;;;24.00;99.90;;;;;;5096314;28;20204;-67
2023/06/30 05:46:37;;;;;;;14.97;13.03;;;24.50;99.90;;;;;;5092838;28;20165;-68
2023/06/30 05:49:05;;;;;;;15.60;12.50;;;24.50;99.90;;;;;;5091522;28;20467;-68
2023/06/30 05:51:32;;;;;;;18.27;13.07;;;24.10;99.90;;;;;;5079855;28;20414;-68
2023/06/30 05:53:57;;;;;;;17.80;11.90;;;24.30;99.90;;;;;;5087926;28;20939;-67
2023/06/30 05:56:23;;;;;;;12.43;10.63;;;24.30;99.90;;;;;;5098316;28;20413;-67
2023/06/30 05:58:49;;;;;;;12.57;10.70;;;24.80;99.90;;;;;;5088719;28;20538;-67
2023/06/30 06:01:14;;;;;;;14.67;11.73;;;25.20;99.90;;;;;;5097020;28;20204;-68
2023/06/30 06:03:40;;;;;;;14.17;11.23;;;25.50;99.90;;;;;;5096663;28;20666;-68
2023/06/30 06:06:05;;;;;;;14.77;11.40;;;25.60;99.90;;;;;;5073594;28;20172;-67
2023/06/30 06:08:32;;;;;;;16.07;12.23;;;26.20;99.90;;;;;;5096125;28;20342;-67
2023/06/30 06:10:57;;;;;;;15.03;12.03;;;25.40;99.90;;;;;;5068705;28;20507;-68
2023/06/30 06:13:34;;;;;;;17.73;13.33;;;24.80;99.90;;;;;;5080365;28;20675;-67
2023/06/30 06:16:00;;;;;;;14.53;11.90;;;24.60;99.90;;;;;;5107099;22;20697;-71
2023/06/30 06:18:26;;;;;;;14.50;11.63;;;24.30;99.90;;;;;;5093253;28;20786;-70
2023/06/30 06:20:52;;;;;;;12.60;10.70;;;24.10;99.90;;;;;;5094577;28;20513;-71
2023/06/30 06:23:17;;;;;;;13.23;11.70;;;24.30;99.90;;;;;;5086807;28;20177;-69
2023/06/30 06:25:43;;;;;;;13.00;11.67;;;24.60;99.90;;;;;;5089123;28;20371;-70
2023/06/30 06:28:09;;;;;;;17.20;11.60;;;24.60;99.90;;;;;;5089956;28;20199;-71
2023/06/30 06:30:34;;;;;;;14.27;11.00;;;24.20;99.90;;;;;;5100144;28;20223;-70
2023/06/30 06:33:00;;;;;;;14.90;11.73;;;24.30;99.90;;;;;;5080002;28;20181;-70
2023/06/30 06:35:25;;;;;;;13.33;11.93;;;24.10;99.90;;;;;;5091804;28;20175;-71
2023/06/30 06:37:51;;;;;;;15.93;12.70;;;23.70;99.90;;;;;;5089590;28;20197;-71
2023/06/30 06:40:16;;;;;;;13.67;11.50;;;23.80;99.90;;;;;;5086571;28;20513;-71
2023/06/30 06:42:42;;;;;;;14.97;11.90;;;24.10;99.90;;;;;;5099995;28;20175;-70
2023/06/30 06:45:08;;;;;;;14.20;12.20;;;24.40;99.90;;;;;;5088016;28;20604;-70
2023/06/30 06:48:11;;;;;;;14.00;12.10;;;24.70;99.90;;;;;;5095616;28;20196;-70
2023/06/30 06:50:36;;;;;;;16.40;11.10;;;24.40;99.90;;;;;;5083292;28;20168;-70
2023/06/30 06:53:02;;;;;;;13.50;10.90;;;24.00;99.90;;;;;;5092935;28;20399;-70
2023/06/30 06:55:28;;;;;;;12.93;11.20;;;23.90;99.90;;;;;;5097546;28;20184;-71
2023/06/30 06:57:53;;;;;;;12.30;10.80;;;23.80;99.90;;;;;;5068206;28;20196;-71
2023/06/30 07:00:19;;;;;;;14.00;11.17;;;23.90;99.90;;;;;;5096635;28;20165;-71
2023/06/30 07:02:45;;;;;;;13.53;12.13;;;23.70;99.90;;;;;;5089467;28;20394;-71
2023/06/30 07:05:11;;;;;;;16.33;12.67;;;23.50;99.90;;;;;;5094024;28;20211;-70
2023/06/30 07:07:37;;;;;;;13.80;11.30;;;23.60;99.90;;;;;;5087445;28;20184;-69
2023/06/30 07:10:03;;;;;;;16.67;12.43;;;23.70;99.90;;;;;;5092922;28;20413;-70
2023/06/30 07:12:29;;;;;;;14.80;11.73;;;23.90;99.90;;;;;;5091046;28;20405;-69
2023/06/30 07:14:54;;;;;;;16.20;12.83;;;23.80;99.90;;;;;;5087028;28;20172;-70
2023/06/30 07:17:21;;;;;;;14.30;11.70;;;23.50;99.90;;;;;;5095837;28;20215;-70
2023/06/30 07:19:46;;;;;;;15.13;11.63;;;23.40;99.90;;;;;;5087043;28;20198;-69
2023/06/30 07:22:12;;;;;;;13.40;10.73;;;23.10;99.90;;;;;;5094589;28;20614;-69
2023/06/30 07:24:38;;;;;;;12.93;11.13;;;22.70;99.90;;;;;;5089648;28;20196;-70
2023/06/30 07:27:03;;;;;;;15.53;11.10;;;22.70;99.90;;;;;;5089969;28;20185;-69
2023/06/30 07:29:29;;;;;;;14.20;11.40;;;22.70;99.90;;;;;;5092410;28;20253;-70
2023/06/30 07:31:54;;;;;;;13.43;11.90;;;22.80;99.90;;;;;;5093265;28;20183;-69
2023/06/30 07:34:23;;;;;;;15.10;11.03;;;22.60;99.90;;;;;;5091485;28;20317;-70
2023/06/30 07:36:52;;;;;;;14.47;11.90;;;22.70;99.90;;;;;;5090390;28;20298;-69
2023/06/30 07:39:18;;;;;;;15.90;12.60;;;22.80;99.90;;;;;;5095793;28;20415;-70
2023/06/30 07:41:43;;;;;;;14.00;10.90;;;23.00;99.90;;;;;;5094602;28;20402;-70
2023/06/30 07:44:11;;;;;;;14.37;12.07;;;22.90;99.90;;;;;;5093642;28;20511;-69
2023/06/30 07:46:37;;;;;;;14.20;11.57;;;22.60;99.90;;;;;;5080854;28;20317;-69
2023/06/30 07:49:03;;;;;;;12.07;10.30;;;22.30;99.90;;;;;;5088589;28;20411;-70
2023/06/30 07:51:30;;;;;;;11.97;10.63;;;22.40;99.90;;;;;;5091317;28;20446;-70
2023/06/30 07:53:56;;;;;;;16.00;12.20;;;22.70;99.90;;;;;;5104444;28;20433;-70
2023/06/30 07:56:22;;;;;;;14.93;11.70;;;22.70;99.90;;;;;;5089950;28;20821;-70
2023/06/30 07:58:47;;;;;;;15.17;12.00;;;22.70;99.90;;;;;;5094455;28;20438;-70
2023/06/30 08:01:13;;;;;;;16.50;10.90;;;22.90;99.90;;;;;;5093800;28;20169;-69
2023/06/30 08:03:39;;;;;;;13.70;11.17;;;22.90;99.90;;;;;;5099198;28;20168;-71
2023/06/30 08:06:05;;;;;;;17.60;12.50;;;22.60;99.90;;;;;;5088365;28;20279;-69
2023/06/30 08:08:31;;;;;;;14.30;11.77;;;22.60;99.90;;;;;;5096653;28;20638;-70
2023/06/30 08:10:57;;;;;;;13.50;10.27;;;22.50;99.90;;;;;;5095613;28;20166;-69
2023/06/30 08:13:23;;;;;;;16.57;12.00;;;22.60;99.90;;;;;;5089604;28;20728;-70
2023/06/30 08:15:52;;;;;;;13.27;10.27;;;22.70;99.90;;;;;;5093775;28;20178;-70
2023/06/30 08:18:17;;;;;;;19.63;11.90;;;23.00;99.90;;;;;;5092869;28;20525;-70
2023/06/30 08:20:43;;;;;;;12.17;9.27;;;22.70;99.90;;;;;;5098718;28;20410;-69
2023/06/30 08:23:12;;;;;;;12.40;11.13;;;22.70;99.90;;;;;;5087932;28;20177;-69
2023/06/30 08:25:37;;;;;;;12.83;11.20;;;22.60;99.90;;;;;;5093782;28;20193;-70
2023/06/30 08:28:03;;;;;;;15.27;10.27;;;22.80;99.90;;;;;;5090257;28;20429;-69
2023/06/30 08:30:29;;;;;;;13.50;11.40;;;23.10;99.90;;;;;;5097288;28;20215;-69
2023/06/30 08:32:54;;;;;;;13.17;10.40;;;22.80;99.90;;;;;;5088833;28;20560;-69
2023/06/30 08:35:20;;;;;;;13.70;11.00;;;23.40;99.90;;;;;;5097317;28;20288;-68
2023/06/30 08:37:46;;;;;;;13.90;11.80;;;23.70;99.90;;;;;;5085011;28;20204;-70
2023/06/30 08:40:12;;;;;;;13.17;10.30;;;23.50;99.90;;;;;;5094731;28;20254;-69
2023/06/30 08:42:40;;;;;;;14.87;11.77;;;23.50;99.90;;;;;;5106029;28;20599;-71
2023/06/30 08:45:07;;;;;;;13.63;10.93;;;23.30;99.90;;;;;;5099551;28;20564;-71
2023/06/30 08:47:34;;;;;;;14.50;11.33;;;23.70;99.90;;;;;;5097097;28;20558;-69
2023/06/30 08:50:01;;;;;;;21.17;11.67;;;23.90;99.90;;;;;;5088359;28;20733;-69
2023/06/30 08:52:28;;;;;;;14.60;11.10;;;24.20;99.90;;;;;;5092543;28;20467;-70
2023/06/30 08:54:54;;;;;;;15.17;10.60;;;24.00;99.90;;;;;;5089462;28;20501;-68
2023/06/30 08:57:20;;;;;;;18.47;12.10;;;23.70;99.90;;;;;;5101415;28;20664;-69
2023/06/30 08:59:46;;;;;;;13.00;11.07;;;24.00;99.90;;;;;;5093840;28;20519;-70
2023/06/30 09:02:12;;;;;;;12.40;10.97;;;24.50;99.90;;;;;;5095592;28;20416;-70
2023/06/30 09:04:40;;;;;;;13.23;10.47;;;24.70;99.90;;;;;;5094957;28;20243;-70
2023/06/30 09:07:08;;;;;;;13.93;11.50;;;24.20;99.90;;;;;;5087878;28;20487;-70
2023/06/30 09:09:40;;;;;;;12.57;11.23;;;24.40;99.90;;;;;;5096718;28;20484;-70
2023/06/30 09:12:07;;;;;;;15.37;12.30;;;24.80;99.90;;;;;;5086979;28;20403;-70
2023/06/30 09:14:34;;;;;;;14.97;11.80;;;24.30;99.90;;;;;;5102025;28;20417;-70
2023/06/30 09:17:03;;;;;;;18.70;12.03;;;24.50;99.90;;;;;;5090398;28;20450;-70
2023/06/30 09:19:29;;;;;;;17.67;12.37;;;24.90;99.90;;;;;;5099644;28;20428;-70
2023/06/30 09:21:56;;;;;;;14.03;12.53;;;24.50;99.90;;;;;;5090037;28;20490;-70
2023/06/30 09:24:22;;;;;;;13.40;12.03;;;24.20;99.90;;;;;;5100821;28;20456;-68
2023/06/30 09:26:49;;;;;;;16.13;11.97;;;24.20;99.90;;;;;;5106280;28;20454;-69
2023/06/30 09:29:18;;;;;;;15.17;12.33;;;23.70;99.90;;;;;;5090360;28;20245;-70
2023/06/30 09:31:44;;;;;;;18.47;14.40;;;23.80;99.90;;;;;;5087617;28;20420;-70
2023/06/30 09:34:13;;;;;;;14.57;12.80;;;23.50;99.90;;;;;;5088923;28;20549;-70
2023/06/30 09:36:57;;;;;;;16.97;14.67;;;23.60;99.90;;;;;;5087919;28;20431;-70
2023/06/30 09:39:23;;;;;;;19.30;14.37;;;23.90;99.90;;;;;;5093065;28;20411;-70
2023/06/30 09:41:50;;;;;;;17.63;13.77;;;23.90;99.90;;;;;;5100100;28;20818;-70
2023/06/30 09:44:20;;;;;;;19.40;13.00;;;23.90;99.90;;;;;;5091368;28;20526;-70
2023/06/30 09:46:55;;;;;;;16.33;14.60;;;24.10;99.90;;;;;;5096870;28;20455;-70
2023/06/30 09:49:30;;;;;;;17.97;14.67;;;23.60;99.90;;;;;;5086232;28;20394;-70
2023/06/30 09:51:57;;;;;;;20.30;14.83;;;23.50;99.90;;;;;;5097297;28;20465;-70
2023/06/30 09:54:24;;;;;;;22.33;16.80;;;23.30;99.90;;;;;;5096450;28;20436;-70
2023/06/30 09:57:00;;;;;;;18.73;15.63;;;22.90;99.90;;;;;;5086581;28;20521;-70
2023/06/30 09:59:26;;;;;;;19.67;16.87;;;22.60;99.90;;;;;;5094825;28;20427;-70
2023/06/30 10:01:53;;;;;;;17.77;15.63;;;22.90;99.90;;;;;;5096955;28;20517;-70
2023/06/30 10:04:19;;;;;;;24.40;17.23;;;23.00;99.90;;;;;;5093691;28;20451;-70
2023/06/30 10:06:47;;;;;;;23.40;16.50;;;23.10;99.90;;;;;;5086424;28;20467;-71
2023/06/30 10:09:15;;;;;;;19.47;15.70;;;22.40;99.90;;;;;;5097576;28;20245;-70
2023/06/30 10:11:43;;;;;;;23.60;18.03;;;22.20;99.90;;;;;;5097256;28;20458;-70
2023/06/30 10:14:14;;;;;;;23.30;19.07;;;21.70;99.90;;;;;;5088629;28;20415;-70
2023/06/30 10:16:40;;;;;;;22.60;18.00;;;21.50;99.90;;;;;;5090296;28;20974;-70
2023/06/30 10:19:07;;;;;;;24.47;19.40;;;21.50;99.90;;;;;;5092523;28;20416;-69
2023/06/30 10:21:35;;;;;;;23.77;19.00;;;21.60;99.90;;;;;;5094791;28;20416;-70
2023/06/30 10:24:02;;;;;;;24.23;19.07;;;21.80;99.90;;;;;;5087515;28;20503;-69
2023/06/30 10:26:31;;;;;;;26.27;19.57;;;21.90;99.90;;;;;;5087422;28;20881;-70
2023/06/30 10:28:57;;;;;;;30.27;18.37;;;22.00;99.90;;;;;;5088389;28;20400;-70
2023/06/30 10:31:23;;;;;;;26.83;19.87;;;22.10;99.90;;;;;;5099684;28;20410;-68
2023/06/30 10:33:49;;;;;;;28.80;18.90;;;22.10;99.90;;;;;;5093711;28;20433;-71
2023/06/30 10:36:17;;;;;;;24.37;19.50;;;21.80;99.90;;;;;;5089882;28;20192;-71
2023/06/30 10:38:44;;;;;;;25.43;19.13;;;22.00;99.90;;;;;;5090031;28;20414;-69
2023/06/30 10:41:19;;;;;;;26.00;18.40;;;22.40;99.90;;;;;;5095684;28;20417;-69
2023/06/30 10:44:03;;;;;;;21.27;17.23;;;22.40;99.90;;;;;;5100677;28;20493;-69
2023/06/30 10:46:47;;;;;;;20.87;18.03;;;22.40;99.90;;;;;;5093692;28;20428;-70
2023/06/30 10:49:20;;;;;;;22.80;17.57;;;22.20;99.90;;;;;;5078978;28;20398;-70
2023/06/30 10:51:53;;;;;;;19.40;14.47;;;21.80;99.90;;;;;;5087332;28;20408;-70
2023/06/30 10:54:30;;;;;;;20.27;16.00;;;21.50;99.90;;;;;;5088492;28;20876;-71
2023/06/30 10:57:19;;;;;;;22.80;15.97;;;21.20;99.90;;;;;;5097998;28;20957;-70
2023/06/30 11:00:02;;;;;;;20.60;15.07;;;21.10;99.90;;;;;;5089815;28;20406;-70
2023/06/30 11:02:36;;;;;;;20.30;15.63;;;20.90;99.90;;;;;;5097180;28;21011;-70
2023/06/30 11:05:25;;;;;;;26.10;18.60;;;20.90;99.90;;;;;;5086737;28;20906;-70
2023/06/30 11:08:07;;;;;;;21.13;15.80;;;20.80;99.90;;;;;;5073231;28;20492;-70
2023/06/30 11:10:32;;;;;;;20.50;16.33;;;20.90;99.90;;;;;;5097626;28;20422;-69
2023/06/30 11:13:00;;;;;;;22.60;18.00;;;20.90;99.90;;;;;;5096150;28;20403;-70
2023/06/30 11:15:33;;;;;;;22.13;17.57;;;21.10;99.90;;;;;;5097155;28;20181;-70
2023/06/30 11:18:00;;;;;;;25.63;17.73;;;20.90;99.90;;;;;;5085440;28;20454;-70
2023/06/30 11:20:29;;;;;;;25.40;18.10;;;20.70;99.90;;;;;;5091925;28;20466;-70
2023/06/30 11:23:00;;;;;;;27.90;17.60;;;20.70;99.90;;;;;;5084335;28;20435;-70
2023/06/30 11:25:27;;;;;;;23.60;17.70;;;20.80;99.90;;;;;;5094685;28;20808;-70
2023/06/30 11:27:54;;;;;;;25.10;18.60;;;20.70;99.90;;;;;;5088154;28;20472;-70
2023/06/30 11:30:21;;;;;;;24.67;18.70;;;20.80;99.90;;;;;;5089989;28;20414;-70
2023/06/30 11:32:47;;;;;;;30.10;18.87;;;20.90;99.90;;;;;;5083738;28;20840;-70
2023/06/30 11:35:16;;;;;;;24.90;18.37;;;20.80;99.90;;;;;;5089041;28;20417;-70
2023/06/30 11:37:47;;;;;;;27.53;18.37;;;20.90;99.90;;;;;;5085747;28;20935;-70
2023/06/30 11:40:13;;;;;;;25.67;19.10;;;20.70;99.90;;;;;;5097532;28;20829;-70
2023/06/30 11:42:39;;;;;;;23.27;17.20;;;20.70;99.90;;;;;;5092460;28;20432;-69
2023/06/30 11:45:06;;;;;;;27.17;18.00;;;20.90;99.90;;;;;;5085319;28;20226;-70
2023/06/30 11:47:33;;;;;;;20.67;17.17;;;21.10;99.90;;;;;;5091815;28;20441;-69
2023/06/30 11:50:05;;;;;;;28.57;19.50;;;20.80;99.90;;;;;;5089701;28;20407;-69
2023/06/30 11:52:33;;;;;;;21.30;17.90;;;21.10;99.90;;;;;;5098207;28;20420;-70
2023/06/30 11:55:01;;;;;;;23.73;16.27;;;21.30;99.90;;;;;;5099422;28;20420;-70
2023/06/30 11:57:34;;;;;;;22.50;17.37;;;21.60;99.90;;;;;;5092769;28;20462;-70
2023/06/30 12:00:08;;;;;;;25.97;16.93;;;21.60;99.90;;;;;;5080542;28;20417;-69
2023/06/30 12:02:34;;;;;;;23.67;18.83;;;21.90;99.90;;;;;;5088262;28;20414;-68
2023/06/30 12:05:01;;;;;;;25.80;17.87;;;22.40;99.90;;;;;;5079839;28;20457;-70
2023/06/30 12:07:27;;;;;;;26.20;17.77;;;22.30;99.90;;;;;;5090315;28;20282;-69
2023/06/30 12:10:02;;;;;;;18.60;11.57;;;22.30;99.90;;;;;;5092285;28;20489;-69
2023/06/30 12:12:29;;;;;;;12.70;9.73;;;21.60;99.90;;;;;;5074146;28;20169;-70
2023/06/30 12:14:58;;;;;;;7.53;6.10;;;20.90;99.90;;;;;;5099547;28;20421;-70
2023/06/30 12:19:52;;;;;;;8.97;6.77;;;20.80;99.90;;;;;;5075029;28;20470;-69
2023/06/30 12:22:25;;;;;;;9.13;7.00;;;20.80;99.90;;;;;;5073486;28;20930;-69
2023/06/30 12:24:56;;;;;;;8.00;5.80;;;20.60;99.90;;;;;;5055747;28;20209;-70
2023/06/30 12:27:22;;;;;;;9.60;7.07;;;20.80;99.90;;;;;;5076941;28;20418;-67
2023/06/30 12:29:48;;;;;;;8.60;5.70;;;20.80;99.90;;;;;;5068827;28;20409;-69
2023/06/30 12:32:14;;;;;;;9.10;6.10;;;21.00;99.90;;;;;;5074152;28;20546;-71